sensor_id;sensor_type;location;lat;lon;timestamp;P1;durP1;ratioP1;P2;durP2;ratioP2
28481;SDS011;15703;49.588;6.260;2022-12-18T00:01:03;33.90;;;21.57;;
28481;SDS011;15703;49.588;6.260;2022-12-18T00:03:27;37.37;;;22.47;;
28481;SDS011;15703;49.588;6.260;2022-12-18T00:05:51;40.87;;;21.47;;
28481;SDS011;15703;49.588;6.260;2022-12-18T00:08:13;40.67;;;25.17;;
28481;SDS011;15703;49.588;6.260;2022-12-18T00:10:36;33.97;;;23.27;;
28481;SDS011;15703;49.588;6.260;2022-12-18T00:12:59;42.87;;;26.10;;
28481;SDS011;15703;49.588;6.260;2022-12-18T00:15:26;36.07;;;23.47;;
28481;SDS011;15703;49.588;6.260;2022-12-18T00:17:49;42.63;;;25.70;;
28481;SDS011;15703;49.588;6.260;2022-12-18T00:20:11;39.60;;;22.73;;
28481;SDS011;15703;49.588;6.260;2022-12-18T00:22:34;32.77;;;23.63;;
28481;SDS011;15703;49.588;6.260;2022-12-18T00:25:09;38.13;;;23.13;;
28481;SDS011;15703;49.588;6.260;2022-12-18T00:27:32;34.00;;;22.20;;
28481;SDS011;15703;49.588;6.260;2022-12-18T00:29:54;36.70;;;22.33;;
28481;SDS011;15703;49.588;6.260;2022-12-18T00:32:17;35.63;;;22.00;;
28481;SDS011;15703;49.588;6.260;2022-12-18T00:34:40;39.40;;;25.20;;
28481;SDS011;15703;49.588;6.260;2022-12-18T00:37:05;39.70;;;24.33;;
28481;SDS011;15703;49.588;6.260;2022-12-18T00:39:28;30.53;;;23.67;;
28481;SDS011;15703;49.588;6.260;2022-12-18T00:41:50;32.83;;;23.10;;
28481;SDS011;15703;49.588;6.260;2022-12-18T00:44:38;37.43;;;22.83;;
28481;SDS011;15703;49.588;6.260;2022-12-18T00:47:01;36.90;;;22.43;;
28481;SDS011;15703;49.588;6.260;2022-12-18T00:49:23;35.03;;;21.97;;
28481;SDS011;15703;49.588;6.260;2022-12-18T00:51:46;36.03;;;20.00;;
28481;SDS011;15703;49.588;6.260;2022-12-18T00:54:08;35.53;;;20.87;;
28481;SDS011;15703;49.588;6.260;2022-12-18T00:56:31;34.97;;;21.33;;
28481;SDS011;15703;49.588;6.260;2022-12-18T00:58:53;35.87;;;21.20;;
28481;SDS011;15703;49.588;6.260;2022-12-18T01:01:17;32.93;;;21.13;;
28481;SDS011;15703;49.588;6.260;2022-12-18T01:03:40;32.37;;;21.10;;
28481;SDS011;15703;49.588;6.260;2022-12-18T01:06:07;28.27;;;21.57;;
28481;SDS011;15703;49.588;6.260;2022-12-18T01:08:30;35.00;;;21.63;;
28481;SDS011;15703;49.588;6.260;2022-12-18T01:10:52;35.83;;;22.60;;
28481;SDS011;15703;49.588;6.260;2022-12-18T01:13:15;33.87;;;20.43;;
28481;SDS011;15703;49.588;6.260;2022-12-18T01:15:37;32.97;;;20.37;;
28481;SDS011;15703;49.588;6.260;2022-12-18T01:18:00;36.47;;;21.77;;
28481;SDS011;15703;49.588;6.260;2022-12-18T01:20:22;36.67;;;21.60;;
28481;SDS011;15703;49.588;6.260;2022-12-18T01:22:45;38.97;;;22.53;;
28481;SDS011;15703;49.588;6.260;2022-12-18T01:25:08;32.27;;;19.97;;
28481;SDS011;15703;49.588;6.260;2022-12-18T01:27:30;29.93;;;20.20;;
28481;SDS011;15703;49.588;6.260;2022-12-18T01:29:53;28.83;;;20.13;;
28481;SDS011;15703;49.588;6.260;2022-12-18T01:32:40;28.13;;;20.00;;
28481;SDS011;15703;49.588;6.260;2022-12-18T01:35:03;33.60;;;20.07;;
28481;SDS011;15703;49.588;6.260;2022-12-18T01:37:26;28.87;;;20.83;;
28481;SDS011;15703;49.588;6.260;2022-12-18T01:39:49;34.40;;;22.40;;
28481;SDS011;15703;49.588;6.260;2022-12-18T01:42:14;36.33;;;21.10;;
28481;SDS011;15703;49.588;6.260;2022-12-18T01:44:51;33.33;;;22.27;;
28481;SDS011;15703;49.588;6.260;2022-12-18T01:47:20;31.07;;;19.93;;
28481;SDS011;15703;49.588;6.260;2022-12-18T01:49:44;29.80;;;19.63;;
28481;SDS011;15703;49.588;6.260;2022-12-18T01:52:06;30.77;;;18.23;;
28481;SDS011;15703;49.588;6.260;2022-12-18T01:54:29;35.23;;;19.73;;
28481;SDS011;15703;49.588;6.260;2022-12-18T01:56:52;32.73;;;20.50;;
28481;SDS011;15703;49.588;6.260;2022-12-18T01:59:17;33.30;;;19.87;;
28481;SDS011;15703;49.588;6.260;2022-12-18T02:01:40;30.67;;;19.87;;
28481;SDS011;15703;49.588;6.260;2022-12-18T02:04:17;32.30;;;21.13;;
28481;SDS011;15703;49.588;6.260;2022-12-18T02:06:40;30.40;;;19.77;;
28481;SDS011;15703;49.588;6.260;2022-12-18T02:09:07;29.90;;;19.93;;
28481;SDS011;15703;49.588;6.260;2022-12-18T02:26:58;26.77;;;19.37;;
28481;SDS011;15703;49.588;6.260;2022-12-18T02:29:25;26.97;;;17.90;;
28481;SDS011;15703;49.588;6.260;2022-12-18T02:31:52;24.67;;;17.17;;
28481;SDS011;15703;49.588;6.260;2022-12-18T02:34:15;29.83;;;18.97;;
28481;SDS011;15703;49.588;6.260;2022-12-18T02:36:48;24.33;;;17.73;;
28481;SDS011;15703;49.588;6.260;2022-12-18T02:39:12;27.47;;;18.13;;
28481;SDS011;15703;49.588;6.260;2022-12-18T02:41:47;25.57;;;18.03;;
28481;SDS011;15703;49.588;6.260;2022-12-18T02:44:10;27.73;;;17.63;;
28481;SDS011;15703;49.588;6.260;2022-12-18T02:46:35;28.13;;;18.10;;
28481;SDS011;15703;49.588;6.260;2022-12-18T02:51:45;27.63;;;17.73;;
28481;SDS011;15703;49.588;6.260;2022-12-18T02:54:13;30.73;;;19.20;;
28481;SDS011;15703;49.588;6.260;2022-12-18T02:56:39;29.77;;;18.93;;
28481;SDS011;15703;49.588;6.260;2022-12-18T02:59:04;22.53;;;17.87;;
28481;SDS011;15703;49.588;6.260;2022-12-18T03:02:37;26.07;;;18.90;;
28481;SDS011;15703;49.588;6.260;2022-12-18T03:07:05;25.70;;;18.33;;
28481;SDS011;15703;49.588;6.260;2022-12-18T03:09:37;26.90;;;17.87;;
28481;SDS011;15703;49.588;6.260;2022-12-18T03:12:04;27.30;;;20.60;;
28481;SDS011;15703;49.588;6.260;2022-12-18T03:14:49;31.27;;;19.67;;
28481;SDS011;15703;49.588;6.260;2022-12-18T03:17:16;27.50;;;20.43;;
28481;SDS011;15703;49.588;6.260;2022-12-18T03:19:41;29.13;;;20.03;;
28481;SDS011;15703;49.588;6.260;2022-12-18T03:22:05;28.27;;;19.53;;
28481;SDS011;15703;49.588;6.260;2022-12-18T03:24:37;25.53;;;19.57;;
28481;SDS011;15703;49.588;6.260;2022-12-18T03:27:01;22.47;;;17.83;;
28481;SDS011;15703;49.588;6.260;2022-12-18T03:29:26;28.77;;;18.77;;
28481;SDS011;15703;49.588;6.260;2022-12-18T03:31:53;23.20;;;18.83;;
28481;SDS011;15703;49.588;6.260;2022-12-18T03:34:18;27.27;;;16.80;;
28481;SDS011;15703;49.588;6.260;2022-12-18T03:36:41;26.07;;;17.63;;
28481;SDS011;15703;49.588;6.260;2022-12-18T03:39:05;29.73;;;17.93;;
28481;SDS011;15703;49.588;6.260;2022-12-18T03:41:36;25.23;;;18.53;;
28481;SDS011;15703;49.588;6.260;2022-12-18T03:44:22;24.70;;;15.97;;
28481;SDS011;15703;49.588;6.260;2022-12-18T03:49:12;25.63;;;18.47;;
28481;SDS011;15703;49.588;6.260;2022-12-18T03:51:48;23.97;;;18.17;;
28481;SDS011;15703;49.588;6.260;2022-12-18T03:54:13;27.67;;;18.83;;
28481;SDS011;15703;49.588;6.260;2022-12-18T03:56:48;18.73;;;16.37;;
28481;SDS011;15703;49.588;6.260;2022-12-18T03:59:15;23.67;;;17.87;;
28481;SDS011;15703;49.588;6.260;2022-12-18T04:01:39;25.10;;;17.70;;
28481;SDS011;15703;49.588;6.260;2022-12-18T04:04:06;26.00;;;18.97;;
28481;SDS011;15703;49.588;6.260;2022-12-18T04:06:35;25.23;;;17.53;;
28481;SDS011;15703;49.588;6.260;2022-12-18T04:08:58;22.80;;;16.80;;
28481;SDS011;15703;49.588;6.260;2022-12-18T04:11:22;21.57;;;17.57;;
28481;SDS011;15703;49.588;6.260;2022-12-18T04:13:45;25.83;;;17.40;;
28481;SDS011;15703;49.588;6.260;2022-12-18T04:16:13;22.30;;;16.57;;
28481;SDS011;15703;49.588;6.260;2022-12-18T04:18:38;21.90;;;16.10;;
28481;SDS011;15703;49.588;6.260;2022-12-18T04:21:02;23.10;;;16.30;;
28481;SDS011;15703;49.588;6.260;2022-12-18T04:23:27;22.87;;;16.63;;
28481;SDS011;15703;49.588;6.260;2022-12-18T04:25:52;23.73;;;17.67;;
28481;SDS011;15703;49.588;6.260;2022-12-18T04:28:28;24.53;;;16.80;;
28481;SDS011;15703;49.588;6.260;2022-12-18T04:30:50;23.33;;;17.33;;
28481;SDS011;15703;49.588;6.260;2022-12-18T04:33:17;26.97;;;17.37;;
28481;SDS011;15703;49.588;6.260;2022-12-18T04:35:40;20.97;;;17.17;;
28481;SDS011;15703;49.588;6.260;2022-12-18T04:38:02;22.77;;;18.63;;
28481;SDS011;15703;49.588;6.260;2022-12-18T04:40:24;28.27;;;17.97;;
28481;SDS011;15703;49.588;6.260;2022-12-18T04:42:47;24.10;;;17.00;;
28481;SDS011;15703;49.588;6.260;2022-12-18T04:45:09;31.30;;;17.93;;
28481;SDS011;15703;49.588;6.260;2022-12-18T04:47:31;22.87;;;18.00;;
28481;SDS011;15703;49.588;6.260;2022-12-18T04:49:54;21.80;;;16.67;;
28481;SDS011;15703;49.588;6.260;2022-12-18T04:52:16;24.30;;;17.83;;
28481;SDS011;15703;49.588;6.260;2022-12-18T04:54:38;27.53;;;17.77;;
28481;SDS011;15703;49.588;6.260;2022-12-18T04:57:01;24.80;;;18.57;;
28481;SDS011;15703;49.588;6.260;2022-12-18T04:59:23;24.27;;;17.30;;
28481;SDS011;15703;49.588;6.260;2022-12-18T05:01:45;24.23;;;18.73;;
28481;SDS011;15703;49.588;6.260;2022-12-18T05:04:08;23.80;;;17.83;;
28481;SDS011;15703;49.588;6.260;2022-12-18T05:06:30;26.60;;;18.00;;
28481;SDS011;15703;49.588;6.260;2022-12-18T05:08:53;28.13;;;18.93;;
28481;SDS011;15703;49.588;6.260;2022-12-18T05:11:15;24.07;;;18.00;;
28481;SDS011;15703;49.588;6.260;2022-12-18T05:13:37;26.53;;;18.33;;
28481;SDS011;15703;49.588;6.260;2022-12-18T05:16:00;24.37;;;17.03;;
28481;SDS011;15703;49.588;6.260;2022-12-18T05:18:23;25.63;;;18.03;;
28481;SDS011;15703;49.588;6.260;2022-12-18T05:20:45;24.33;;;17.20;;
28481;SDS011;15703;49.588;6.260;2022-12-18T05:23:08;21.83;;;17.83;;
28481;SDS011;15703;49.588;6.260;2022-12-18T05:25:30;23.47;;;16.47;;
28481;SDS011;15703;49.588;6.260;2022-12-18T05:27:53;23.13;;;17.10;;
28481;SDS011;15703;49.588;6.260;2022-12-18T05:30:15;23.40;;;17.23;;
28481;SDS011;15703;49.588;6.260;2022-12-18T05:32:38;26.67;;;18.87;;
28481;SDS011;15703;49.588;6.260;2022-12-18T05:35:00;27.90;;;17.50;;
28481;SDS011;15703;49.588;6.260;2022-12-18T05:37:22;23.43;;;17.17;;
28481;SDS011;15703;49.588;6.260;2022-12-18T05:39:45;24.70;;;17.60;;
28481;SDS011;15703;49.588;6.260;2022-12-18T05:42:07;25.20;;;16.63;;
28481;SDS011;15703;49.588;6.260;2022-12-18T05:44:29;22.93;;;16.33;;
28481;SDS011;15703;49.588;6.260;2022-12-18T05:46:51;23.50;;;17.40;;
28481;SDS011;15703;49.588;6.260;2022-12-18T05:49:14;26.03;;;17.27;;
28481;SDS011;15703;49.588;6.260;2022-12-18T05:51:36;25.23;;;18.20;;
28481;SDS011;15703;49.588;6.260;2022-12-18T05:54:01;24.33;;;17.53;;
28481;SDS011;15703;49.588;6.260;2022-12-18T05:56:23;23.80;;;16.87;;
28481;SDS011;15703;49.588;6.260;2022-12-18T05:58:46;23.87;;;17.70;;
28481;SDS011;15703;49.588;6.260;2022-12-18T06:01:09;25.30;;;17.77;;
28481;SDS011;15703;49.588;6.260;2022-12-18T06:03:32;22.93;;;17.33;;
28481;SDS011;15703;49.588;6.260;2022-12-18T06:05:54;25.77;;;18.07;;
28481;SDS011;15703;49.588;6.260;2022-12-18T06:08:17;22.23;;;17.07;;
28481;SDS011;15703;49.588;6.260;2022-12-18T06:10:39;20.60;;;16.57;;
28481;SDS011;15703;49.588;6.260;2022-12-18T06:13:02;29.63;;;18.63;;
28481;SDS011;15703;49.588;6.260;2022-12-18T06:15:24;25.53;;;18.13;;
28481;SDS011;15703;49.588;6.260;2022-12-18T06:17:47;26.07;;;18.47;;
28481;SDS011;15703;49.588;6.260;2022-12-18T06:20:09;24.40;;;17.10;;
28481;SDS011;15703;49.588;6.260;2022-12-18T06:22:31;25.00;;;17.17;;
28481;SDS011;15703;49.588;6.260;2022-12-18T06:24:54;23.23;;;17.33;;
28481;SDS011;15703;49.588;6.260;2022-12-18T06:27:16;29.00;;;18.57;;
28481;SDS011;15703;49.588;6.260;2022-12-18T06:29:39;26.00;;;16.87;;
28481;SDS011;15703;49.588;6.260;2022-12-18T06:32:01;23.13;;;17.93;;
28481;SDS011;15703;49.588;6.260;2022-12-18T06:34:23;21.47;;;17.07;;
28481;SDS011;15703;49.588;6.260;2022-12-18T06:36:46;25.60;;;16.73;;
28481;SDS011;15703;49.588;6.260;2022-12-18T06:39:08;24.60;;;17.33;;
28481;SDS011;15703;49.588;6.260;2022-12-18T06:41:30;21.17;;;16.73;;
28481;SDS011;15703;49.588;6.260;2022-12-18T06:43:52;18.07;;;16.13;;
28481;SDS011;15703;49.588;6.260;2022-12-18T06:46:20;23.53;;;18.17;;
28481;SDS011;15703;49.588;6.260;2022-12-18T06:48:42;23.67;;;16.27;;
28481;SDS011;15703;49.588;6.260;2022-12-18T06:51:04;23.43;;;17.80;;
28481;SDS011;15703;49.588;6.260;2022-12-18T06:53:27;22.30;;;16.43;;
28481;SDS011;15703;49.588;6.260;2022-12-18T06:55:49;24.07;;;16.40;;
28481;SDS011;15703;49.588;6.260;2022-12-18T06:58:12;24.07;;;18.67;;
28481;SDS011;15703;49.588;6.260;2022-12-18T07:00:34;21.93;;;18.17;;
28481;SDS011;15703;49.588;6.260;2022-12-18T07:02:56;18.63;;;16.10;;
28481;SDS011;15703;49.588;6.260;2022-12-18T07:05:19;21.67;;;17.27;;
28481;SDS011;15703;49.588;6.260;2022-12-18T07:07:41;26.40;;;18.47;;
28481;SDS011;15703;49.588;6.260;2022-12-18T07:10:03;29.13;;;18.60;;
28481;SDS011;15703;49.588;6.260;2022-12-18T07:12:26;24.10;;;17.03;;
28481;SDS011;15703;49.588;6.260;2022-12-18T07:14:49;24.03;;;17.60;;
28481;SDS011;15703;49.588;6.260;2022-12-18T07:17:11;25.17;;;17.23;;
28481;SDS011;15703;49.588;6.260;2022-12-18T07:19:33;26.80;;;17.23;;
28481;SDS011;15703;49.588;6.260;2022-12-18T07:21:56;24.67;;;17.33;;
28481;SDS011;15703;49.588;6.260;2022-12-18T07:24:18;29.87;;;19.07;;
28481;SDS011;15703;49.588;6.260;2022-12-18T07:26:40;22.90;;;17.17;;
28481;SDS011;15703;49.588;6.260;2022-12-18T07:29:03;21.13;;;16.30;;
28481;SDS011;15703;49.588;6.260;2022-12-18T07:31:25;27.77;;;18.10;;
28481;SDS011;15703;49.588;6.260;2022-12-18T07:33:48;23.83;;;17.90;;
28481;SDS011;15703;49.588;6.260;2022-12-18T07:36:11;24.40;;;18.23;;
28481;SDS011;15703;49.588;6.260;2022-12-18T07:38:34;24.33;;;18.50;;
28481;SDS011;15703;49.588;6.260;2022-12-18T07:41:03;21.97;;;15.83;;
28481;SDS011;15703;49.588;6.260;2022-12-18T07:43:27;22.93;;;15.27;;
28481;SDS011;15703;49.588;6.260;2022-12-18T07:45:49;25.07;;;17.10;;
28481;SDS011;15703;49.588;6.260;2022-12-18T07:48:12;23.13;;;15.77;;
28481;SDS011;15703;49.588;6.260;2022-12-18T07:50:34;25.17;;;18.57;;
28481;SDS011;15703;49.588;6.260;2022-12-18T07:52:56;31.37;;;18.00;;
28481;SDS011;15703;49.588;6.260;2022-12-18T07:55:19;24.90;;;16.97;;
28481;SDS011;15703;49.588;6.260;2022-12-18T07:57:41;25.73;;;18.33;;
28481;SDS011;15703;49.588;6.260;2022-12-18T08:00:15;23.53;;;17.20;;
28481;SDS011;15703;49.588;6.260;2022-12-18T08:02:38;26.43;;;18.67;;
28481;SDS011;15703;49.588;6.260;2022-12-18T08:05:08;27.33;;;18.37;;
28481;SDS011;15703;49.588;6.260;2022-12-18T08:07:31;22.53;;;17.30;;
28481;SDS011;15703;49.588;6.260;2022-12-18T08:09:53;22.33;;;16.50;;
28481;SDS011;15703;49.588;6.260;2022-12-18T08:12:15;28.70;;;18.87;;
28481;SDS011;15703;49.588;6.260;2022-12-18T08:14:38;30.00;;;18.30;;
28481;SDS011;15703;49.588;6.260;2022-12-18T08:17:00;27.53;;;18.73;;
28481;SDS011;15703;49.588;6.260;2022-12-18T08:19:23;28.03;;;18.37;;
28481;SDS011;15703;49.588;6.260;2022-12-18T08:21:45;25.73;;;17.30;;
28481;SDS011;15703;49.588;6.260;2022-12-18T08:24:08;24.47;;;19.53;;
28481;SDS011;15703;49.588;6.260;2022-12-18T08:26:31;31.53;;;20.57;;
28481;SDS011;15703;49.588;6.260;2022-12-18T08:28:54;27.50;;;19.03;;
28481;SDS011;15703;49.588;6.260;2022-12-18T08:31:17;29.07;;;19.10;;
28481;SDS011;15703;49.588;6.260;2022-12-18T08:33:41;29.03;;;20.03;;
28481;SDS011;15703;49.588;6.260;2022-12-18T08:36:05;30.33;;;18.33;;
28481;SDS011;15703;49.588;6.260;2022-12-18T08:38:28;32.07;;;21.87;;
28481;SDS011;15703;49.588;6.260;2022-12-18T08:41:01;29.73;;;20.40;;
28481;SDS011;15703;49.588;6.260;2022-12-18T08:43:24;31.67;;;21.17;;
28481;SDS011;15703;49.588;6.260;2022-12-18T08:46:09;30.33;;;21.27;;
28481;SDS011;15703;49.588;6.260;2022-12-18T08:48:35;30.60;;;19.87;;
28481;SDS011;15703;49.588;6.260;2022-12-18T08:51:18;31.50;;;20.67;;
28481;SDS011;15703;49.588;6.260;2022-12-18T08:53:43;34.00;;;22.30;;
28481;SDS011;15703;49.588;6.260;2022-12-18T08:56:09;38.87;;;23.80;;
28481;SDS011;15703;49.588;6.260;2022-12-18T08:58:55;31.93;;;22.37;;
28481;SDS011;15703;49.588;6.260;2022-12-18T09:02:41;34.83;;;22.60;;
28481;SDS011;15703;49.588;6.260;2022-12-18T09:05:04;41.73;;;23.67;;
28481;SDS011;15703;49.588;6.260;2022-12-18T09:08:30;38.03;;;23.40;;
28481;SDS011;15703;49.588;6.260;2022-12-18T09:52:50;37.20;;;22.47;;
28481;SDS011;15703;49.588;6.260;2022-12-18T09:55:34;35.93;;;22.00;;
28481;SDS011;15703;49.588;6.260;2022-12-18T09:58:39;36.47;;;22.60;;
28481;SDS011;15703;49.588;6.260;2022-12-18T10:01:18;35.77;;;21.37;;
28481;SDS011;15703;49.588;6.260;2022-12-18T10:16:53;33.73;;;21.83;;
28481;SDS011;15703;49.588;6.260;2022-12-18T10:33:42;35.43;;;22.03;;
28481;SDS011;15703;49.588;6.260;2022-12-18T10:36:07;36.83;;;23.23;;
28481;SDS011;15703;49.588;6.260;2022-12-18T10:39:35;36.07;;;21.60;;
28481;SDS011;15703;49.588;6.260;2022-12-18T10:42:16;39.97;;;22.57;;
28481;SDS011;15703;49.588;6.260;2022-12-18T10:48:59;33.80;;;21.33;;
28481;SDS011;15703;49.588;6.260;2022-12-18T10:55:17;35.60;;;21.10;;
28481;SDS011;15703;49.588;6.260;2022-12-18T10:57:49;34.10;;;22.37;;
28481;SDS011;15703;49.588;6.260;2022-12-18T11:03:30;37.23;;;22.50;;
28481;SDS011;15703;49.588;6.260;2022-12-18T11:06:51;38.10;;;22.13;;
28481;SDS011;15703;49.588;6.260;2022-12-18T11:12:46;37.33;;;22.00;;
28481;SDS011;15703;49.588;6.260;2022-12-18T11:15:16;38.63;;;23.40;;
28481;SDS011;15703;49.588;6.260;2022-12-18T11:17:44;34.43;;;22.73;;
28481;SDS011;15703;49.588;6.260;2022-12-18T11:20:27;40.40;;;23.43;;
28481;SDS011;15703;49.588;6.260;2022-12-18T11:23:30;35.80;;;21.87;;
28481;SDS011;15703;49.588;6.260;2022-12-18T11:25:56;34.53;;;22.53;;
28481;SDS011;15703;49.588;6.260;2022-12-18T11:28:33;40.97;;;23.97;;
28481;SDS011;15703;49.588;6.260;2022-12-18T11:36:45;35.50;;;22.33;;
28481;SDS011;15703;49.588;6.260;2022-12-18T11:41:56;34.10;;;22.07;;
28481;SDS011;15703;49.588;6.260;2022-12-18T11:47:49;35.70;;;22.63;;
28481;SDS011;15703;49.588;6.260;2022-12-18T11:50:01;34.00;;;21.60;;
28481;SDS011;15703;49.588;6.260;2022-12-18T11:52:25;34.00;;;22.13;;
28481;SDS011;15703;49.588;6.260;2022-12-18T11:54:52;37.47;;;22.67;;
28481;SDS011;15703;49.588;6.260;2022-12-18T11:57:31;38.50;;;24.10;;
28481;SDS011;15703;49.588;6.260;2022-12-18T12:08:10;35.27;;;21.83;;
28481;SDS011;15703;49.588;6.260;2022-12-18T12:25:22;35.63;;;22.63;;
28481;SDS011;15703;49.588;6.260;2022-12-18T12:28:01;35.67;;;22.77;;
28481;SDS011;15703;49.588;6.260;2022-12-18T12:30:34;33.33;;;22.20;;
28481;SDS011;15703;49.588;6.260;2022-12-18T12:33:21;32.53;;;21.77;;
28481;SDS011;15703;49.588;6.260;2022-12-18T12:37:29;33.97;;;21.93;;
28481;SDS011;15703;49.588;6.260;2022-12-18T12:39:42;38.87;;;22.63;;
28481;SDS011;15703;49.588;6.260;2022-12-18T12:45:05;33.50;;;21.57;;
28481;SDS011;15703;49.588;6.260;2022-12-18T12:47:38;36.83;;;21.13;;
28481;SDS011;15703;49.588;6.260;2022-12-18T12:50:38;31.17;;;20.83;;
28481;SDS011;15703;49.588;6.260;2022-12-18T12:53:06;37.07;;;22.80;;
28481;SDS011;15703;49.588;6.260;2022-12-18T12:55:34;35.50;;;21.97;;
28481;SDS011;15703;49.588;6.260;2022-12-18T13:00:28;36.07;;;23.07;;
28481;SDS011;15703;49.588;6.260;2022-12-18T13:03:07;38.57;;;23.40;;
28481;SDS011;15703;49.588;6.260;2022-12-18T13:05:43;42.97;;;25.50;;
28481;SDS011;15703;49.588;6.260;2022-12-18T13:08:11;42.53;;;23.20;;
28481;SDS011;15703;49.588;6.260;2022-12-18T13:10:41;38.30;;;24.17;;
28481;SDS011;15703;49.588;6.260;2022-12-18T13:13:11;41.87;;;25.53;;
28481;SDS011;15703;49.588;6.260;2022-12-18T13:15:46;40.77;;;25.03;;
28481;SDS011;15703;49.588;6.260;2022-12-18T13:20:34;41.47;;;24.97;;
28481;SDS011;15703;49.588;6.260;2022-12-18T13:23:00;40.93;;;25.40;;
28481;SDS011;15703;49.588;6.260;2022-12-18T13:28:02;43.67;;;25.23;;
28481;SDS011;15703;49.588;6.260;2022-12-18T13:30:41;40.40;;;26.20;;
28481;SDS011;15703;49.588;6.260;2022-12-18T13:36:31;45.03;;;24.80;;
28481;SDS011;15703;49.588;6.260;2022-12-18T13:39:20;40.17;;;23.67;;
28481;SDS011;15703;49.588;6.260;2022-12-18T13:42:30;41.63;;;24.87;;
28481;SDS011;15703;49.588;6.260;2022-12-18T14:02:27;47.87;;;28.47;;
28481;SDS011;15703;49.588;6.260;2022-12-18T14:05:21;41.43;;;26.93;;
28481;SDS011;15703;49.588;6.260;2022-12-18T14:07:52;44.50;;;24.77;;
28481;SDS011;15703;49.588;6.260;2022-12-18T14:10:27;41.40;;;24.83;;
28481;SDS011;15703;49.588;6.260;2022-12-18T14:20:33;38.40;;;25.63;;
28481;SDS011;15703;49.588;6.260;2022-12-18T14:23:41;40.37;;;24.90;;
28481;SDS011;15703;49.588;6.260;2022-12-18T14:28:49;42.47;;;26.00;;
28481;SDS011;15703;49.588;6.260;2022-12-18T14:31:18;46.53;;;26.13;;
28481;SDS011;15703;49.588;6.260;2022-12-18T14:33:45;45.97;;;26.20;;
28481;SDS011;15703;49.588;6.260;2022-12-18T14:36:13;45.10;;;27.70;;
28481;SDS011;15703;49.588;6.260;2022-12-18T14:43:19;47.77;;;27.67;;
28481;SDS011;15703;49.588;6.260;2022-12-18T14:45:42;45.07;;;26.90;;
28481;SDS011;15703;49.588;6.260;2022-12-18T14:58:17;48.10;;;28.43;;
28481;SDS011;15703;49.588;6.260;2022-12-18T15:06:48;47.37;;;27.57;;
28481;SDS011;15703;49.588;6.260;2022-12-18T15:09:24;49.10;;;28.83;;
28481;SDS011;15703;49.588;6.260;2022-12-18T15:16:26;49.07;;;29.97;;
28481;SDS011;15703;49.588;6.260;2022-12-18T15:18:57;51.73;;;28.77;;
28481;SDS011;15703;49.588;6.260;2022-12-18T15:21:28;53.07;;;31.77;;
28481;SDS011;15703;49.588;6.260;2022-12-18T15:24:18;50.37;;;29.90;;
28481;SDS011;15703;49.588;6.260;2022-12-18T15:26:50;50.47;;;29.07;;
28481;SDS011;15703;49.588;6.260;2022-12-18T15:29:25;52.17;;;30.20;;
28481;SDS011;15703;49.588;6.260;2022-12-18T15:32:02;47.80;;;28.57;;
28481;SDS011;15703;49.588;6.260;2022-12-18T15:34:38;55.87;;;32.50;;
28481;SDS011;15703;49.588;6.260;2022-12-18T15:37:03;53.07;;;31.17;;
28481;SDS011;15703;49.588;6.260;2022-12-18T15:39:26;52.60;;;30.90;;
28481;SDS011;15703;49.588;6.260;2022-12-18T15:41:55;57.77;;;32.93;;
28481;SDS011;15703;49.588;6.260;2022-12-18T15:44:38;60.27;;;32.73;;
28481;SDS011;15703;49.588;6.260;2022-12-18T15:47:01;51.17;;;30.70;;
28481;SDS011;15703;49.588;6.260;2022-12-18T15:49:23;57.47;;;33.80;;
28481;SDS011;15703;49.588;6.260;2022-12-18T15:51:48;53.23;;;30.13;;
28481;SDS011;15703;49.588;6.260;2022-12-18T15:54:21;56.90;;;31.43;;
28481;SDS011;15703;49.588;6.260;2022-12-18T15:57:04;55.67;;;30.17;;
28481;SDS011;15703;49.588;6.260;2022-12-18T15:59:46;47.17;;;28.50;;
28481;SDS011;15703;49.588;6.260;2022-12-18T16:05:54;48.70;;;30.10;;
28481;SDS011;15703;49.588;6.260;2022-12-18T16:08:22;47.13;;;28.60;;
28481;SDS011;15703;49.588;6.260;2022-12-18T16:10:45;51.00;;;29.67;;
28481;SDS011;15703;49.588;6.260;2022-12-18T16:13:11;47.27;;;30.57;;
28481;SDS011;15703;49.588;6.260;2022-12-18T16:15:34;52.47;;;30.23;;
28481;SDS011;15703;49.588;6.260;2022-12-18T16:17:56;51.00;;;30.20;;
28481;SDS011;15703;49.588;6.260;2022-12-18T16:20:22;55.00;;;31.20;;
28481;SDS011;15703;49.588;6.260;2022-12-18T16:22:45;49.93;;;27.97;;
28481;SDS011;15703;49.588;6.260;2022-12-18T16:25:19;44.57;;;28.17;;
28481;SDS011;15703;49.588;6.260;2022-12-18T16:27:45;50.13;;;29.97;;
28481;SDS011;15703;49.588;6.260;2022-12-18T16:30:12;49.60;;;28.33;;
28481;SDS011;15703;49.588;6.260;2022-12-18T16:33:16;54.37;;;31.20;;
28481;SDS011;15703;49.588;6.260;2022-12-18T16:35:39;53.00;;;29.60;;
28481;SDS011;15703;49.588;6.260;2022-12-18T16:38:03;51.10;;;30.53;;
28481;SDS011;15703;49.588;6.260;2022-12-18T16:40:30;47.73;;;29.63;;
28481;SDS011;15703;49.588;6.260;2022-12-18T16:42:53;53.67;;;31.53;;
28481;SDS011;15703;49.588;6.260;2022-12-18T16:45:17;51.47;;;29.27;;
28481;SDS011;15703;49.588;6.260;2022-12-18T16:47:40;50.20;;;28.27;;
28481;SDS011;15703;49.588;6.260;2022-12-18T16:50:03;54.03;;;30.50;;
28481;SDS011;15703;49.588;6.260;2022-12-18T16:52:26;52.07;;;28.97;;
28481;SDS011;15703;49.588;6.260;2022-12-18T16:54:59;51.50;;;29.17;;
28481;SDS011;15703;49.588;6.260;2022-12-18T16:57:22;52.53;;;29.40;;
28481;SDS011;15703;49.588;6.260;2022-12-18T16:59:47;47.40;;;29.10;;
28481;SDS011;15703;49.588;6.260;2022-12-18T17:02:18;49.13;;;27.90;;
28481;SDS011;15703;49.588;6.260;2022-12-18T17:04:44;52.97;;;30.60;;
28481;SDS011;15703;49.588;6.260;2022-12-18T17:07:08;46.73;;;29.17;;
28481;SDS011;15703;49.588;6.260;2022-12-18T17:09:31;47.23;;;27.83;;
28481;SDS011;15703;49.588;6.260;2022-12-18T17:12:00;45.97;;;27.20;;
28481;SDS011;15703;49.588;6.260;2022-12-18T17:14:26;48.43;;;28.40;;
28481;SDS011;15703;49.588;6.260;2022-12-18T17:16:58;45.63;;;26.90;;
28481;SDS011;15703;49.588;6.260;2022-12-18T17:20:06;56.23;;;30.87;;
28481;SDS011;15703;49.588;6.260;2022-12-18T17:22:29;44.83;;;27.63;;
28481;SDS011;15703;49.588;6.260;2022-12-18T17:24:51;45.10;;;27.00;;
28481;SDS011;15703;49.588;6.260;2022-12-18T17:27:18;44.97;;;28.33;;
28481;SDS011;15703;49.588;6.260;2022-12-18T17:29:53;47.13;;;28.77;;
28481;SDS011;15703;49.588;6.260;2022-12-18T17:32:16;45.93;;;27.87;;
28481;SDS011;15703;49.588;6.260;2022-12-18T17:38:39;40.80;;;27.17;;
28481;SDS011;15703;49.588;6.260;2022-12-18T17:41:06;40.30;;;26.70;;
28481;SDS011;15703;49.588;6.260;2022-12-18T17:43:33;43.30;;;27.13;;
28481;SDS011;15703;49.588;6.260;2022-12-18T17:46:18;42.33;;;25.53;;
28481;SDS011;15703;49.588;6.260;2022-12-18T17:48:40;49.93;;;29.33;;
28481;SDS011;15703;49.588;6.260;2022-12-18T17:51:04;65.63;;;34.67;;
28481;SDS011;15703;49.588;6.260;2022-12-18T17:53:28;63.27;;;35.57;;
28481;SDS011;15703;49.588;6.260;2022-12-18T17:55:57;52.47;;;30.43;;
28481;SDS011;15703;49.588;6.260;2022-12-18T17:58:37;42.73;;;27.10;;
28481;SDS011;15703;49.588;6.260;2022-12-18T18:01:03;44.17;;;26.53;;
28481;SDS011;15703;49.588;6.260;2022-12-18T18:03:26;44.67;;;27.50;;